sensor_id;sensor_type;location;lat;lon;timestamp;temperature;humidity
20400;DHT22;10359;53.596;22.520;2023-04-03T00:02:04;-1.30;1.00
20400;DHT22;10359;53.596;22.520;2023-04-03T00:04:54;-1.30;1.00
20400;DHT22;10359;53.596;22.520;2023-04-03T00:07:44;-1.40;1.00
20400;DHT22;10359;53.596;22.520;2023-04-03T00:10:35;-1.40;1.00
20400;DHT22;10359;53.596;22.520;2023-04-03T00:13:26;-1.40;1.00
20400;DHT22;10359;53.596;22.520;2023-04-03T00:16:19;-1.40;1.00
20400;DHT22;10359;53.596;22.520;2023-04-03T00:19:10;-1.50;1.00
20400;DHT22;10359;53.596;22.520;2023-04-03T00:22:04;-1.50;1.00
20400;DHT22;10359;53.596;22.520;2023-04-03T00:24:54;-1.50;1.00
20400;DHT22;10359;53.596;22.520;2023-04-03T00:27:45;-1.40;1.00
20400;DHT22;10359;53.596;22.520;2023-04-03T00:30:35;-1.50;1.00
20400;DHT22;10359;53.596;22.520;2023-04-03T00:33:26;-1.50;1.00
20400;DHT22;10359;53.596;22.520;2023-04-03T00:36:17;-1.60;1.00
20400;DHT22;10359;53.596;22.520;2023-04-03T00:39:07;-1.60;1.00
20400;DHT22;10359;53.596;22.520;2023-04-03T00:41:59;-1.60;1.00
20400;DHT22;10359;53.596;22.520;2023-04-03T00:45:24;-1.60;1.00
20400;DHT22;10359;53.596;22.520;2023-04-03T00:48:18;-1.60;1.00
20400;DHT22;10359;53.596;22.520;2023-04-03T00:51:13;-1.60;1.00
20400;DHT22;10359;53.596;22.520;2023-04-03T00:54:05;-1.70;1.00
20400;DHT22;10359;53.596;22.520;2023-04-03T00:56:56;-1.70;1.00
20400;DHT22;10359;53.596;22.520;2023-04-03T00:59:50;-1.70;1.00
20400;DHT22;10359;53.596;22.520;2023-04-03T01:02:43;-1.70;1.00
20400;DHT22;10359;53.596;22.520;2023-04-03T01:05:33;-1.70;1.00
20400;DHT22;10359;53.596;22.520;2023-04-03T01:08:23;-1.90;1.00
20400;DHT22;10359;53.596;22.520;2023-04-03T01:11:14;-1.80;1.00
20400;DHT22;10359;53.596;22.520;2023-04-03T01:14:03;-1.80;1.00
20400;DHT22;10359;53.596;22.520;2023-04-03T01:16:56;-1.80;1.00
20400;DHT22;10359;53.596;22.520;2023-04-03T01:19:53;-1.90;1.00
20400;DHT22;10359;53.596;22.520;2023-04-03T01:22:52;-1.90;1.00
20400;DHT22;10359;53.596;22.520;2023-04-03T01:25:47;-1.90;1.00
20400;DHT22;10359;53.596;22.520;2023-04-03T01:28:40;-1.90;1.00
20400;DHT22;10359;53.596;22.520;2023-04-03T01:31:41;-1.80;1.00
20400;DHT22;10359;53.596;22.520;2023-04-03T01:34:36;-2.00;1.00
20400;DHT22;10359;53.596;22.520;2023-04-03T01:37:30;-2.10;1.00
20400;DHT22;10359;53.596;22.520;2023-04-03T01:40:20;-2.00;1.00
20400;DHT22;10359;53.596;22.520;2023-04-03T01:43:10;-2.00;1.00
20400;DHT22;10359;53.596;22.520;2023-04-03T01:46:00;-2.00;1.00
20400;DHT22;10359;53.596;22.520;2023-04-03T01:48:56;-2.30;1.00
20400;DHT22;10359;53.596;22.520;2023-04-03T01:51:46;-2.00;1.00
20400;DHT22;10359;53.596;22.520;2023-04-03T01:54:36;-2.10;1.00
20400;DHT22;10359;53.596;22.520;2023-04-03T01:57:25;-2.10;1.00
20400;DHT22;10359;53.596;22.520;2023-04-03T02:00:16;-2.10;1.00
20400;DHT22;10359;53.596;22.520;2023-04-03T02:03:08;-2.10;1.00
20400;DHT22;10359;53.596;22.520;2023-04-03T02:05:59;-2.00;1.00
20400;DHT22;10359;53.596;22.520;2023-04-03T02:08:49;-2.00;1.00
20400;DHT22;10359;53.596;22.520;2023-04-03T02:11:44;-2.00;1.00
20400;DHT22;10359;53.596;22.520;2023-04-03T02:14:55;-2.00;1.00
20400;DHT22;10359;53.596;22.520;2023-04-03T02:17:58;-2.10;1.00
20400;DHT22;10359;53.596;22.520;2023-04-03T02:20:54;-2.10;1.00
20400;DHT22;10359;53.596;22.520;2023-04-03T02:23:46;-2.30;1.00
20400;DHT22;10359;53.596;22.520;2023-04-03T02:26:35;-2.10;1.00
20400;DHT22;10359;53.596;22.520;2023-04-03T02:29:25;-2.20;1.00
20400;DHT22;10359;53.596;22.520;2023-04-03T02:32:16;-2.10;1.00
20400;DHT22;10359;53.596;22.520;2023-04-03T02:35:08;-2.20;1.00
20400;DHT22;10359;53.596;22.520;2023-04-03T02:37:58;-2.20;1.00
20400;DHT22;10359;53.596;22.520;2023-04-03T02:40:50;-2.40;1.00
20400;DHT22;10359;53.596;22.520;2023-04-03T02:43:43;-2.20;1.00
20400;DHT22;10359;53.596;22.520;2023-04-03T02:46:34;-2.30;1.00
20400;DHT22;10359;53.596;22.520;2023-04-03T02:49:28;-2.30;1.00
20400;DHT22;10359;53.596;22.520;2023-04-03T02:52:20;-2.20;1.00
20400;DHT22;10359;53.596;22.520;2023-04-03T02:55:14;-2.10;1.00
20400;DHT22;10359;53.596;22.520;2023-04-03T02:58:10;-2.30;1.00
20400;DHT22;10359;53.596;22.520;2023-04-03T03:00:59;-2.20;1.00
20400;DHT22;10359;53.596;22.520;2023-04-03T03:03:49;-2.10;1.00
20400;DHT22;10359;53.596;22.520;2023-04-03T03:06:39;-2.30;1.00
20400;DHT22;10359;53.596;22.520;2023-04-03T03:09:32;-2.30;1.00
20400;DHT22;10359;53.596;22.520;2023-04-03T03:12:22;-2.20;1.00
20400;DHT22;10359;53.596;22.520;2023-04-03T03:15:14;-2.40;1.00
20400;DHT22;10359;53.596;22.520;2023-04-03T03:18:06;-2.40;1.00
20400;DHT22;10359;53.596;22.520;2023-04-03T03:20:58;-2.40;1.00
20400;DHT22;10359;53.596;22.520;2023-04-03T03:23:48;-2.30;1.00
20400;DHT22;10359;53.596;22.520;2023-04-03T03:26:37;-2.50;1.00
20400;DHT22;10359;53.596;22.520;2023-04-03T03:29:30;-2.50;1.00
20400;DHT22;10359;53.596;22.520;2023-04-03T03:32:22;-2.30;1.00
20400;DHT22;10359;53.596;22.520;2023-04-03T03:35:14;-2.50;1.00
20400;DHT22;10359;53.596;22.520;2023-04-03T03:38:11;-2.40;1.00
20400;DHT22;10359;53.596;22.520;2023-04-03T03:41:02;-2.60;1.00
20400;DHT22;10359;53.596;22.520;2023-04-03T03:43:56;-2.50;1.00
20400;DHT22;10359;53.596;22.520;2023-04-03T03:46:47;-2.60;1.00
20400;DHT22;10359;53.596;22.520;2023-04-03T03:49:39;-2.60;1.00
20400;DHT22;10359;53.596;22.520;2023-04-03T03:52:29;-2.70;1.00
20400;DHT22;10359;53.596;22.520;2023-04-03T03:55:24;-2.70;1.00
20400;DHT22;10359;53.596;22.520;2023-04-03T03:58:15;-2.50;1.00
20400;DHT22;10359;53.596;22.520;2023-04-03T04:01:06;-2.70;1.00
20400;DHT22;10359;53.596;22.520;2023-04-03T04:03:57;-2.60;1.00
20400;DHT22;10359;53.596;22.520;2023-04-03T04:06:53;-2.50;1.00
20400;DHT22;10359;53.596;22.520;2023-04-03T04:09:43;-2.90;1.00
20400;DHT22;10359;53.596;22.520;2023-04-03T04:12:32;-2.60;1.00
20400;DHT22;10359;53.596;22.520;2023-04-03T04:15:23;-2.40;1.00
20400;DHT22;10359;53.596;22.520;2023-04-03T04:18:13;-2.60;1.00
20400;DHT22;10359;53.596;22.520;2023-04-03T04:21:06;-2.40;1.00
20400;DHT22;10359;53.596;22.520;2023-04-03T04:23:57;-2.60;1.00
20400;DHT22;10359;53.596;22.520;2023-04-03T04:26:48;-2.40;1.00
20400;DHT22;10359;53.596;22.520;2023-04-03T04:29:40;-2.30;1.00
20400;DHT22;10359;53.596;22.520;2023-04-03T04:32:37;-2.40;1.00
20400;DHT22;10359;53.596;22.520;2023-04-03T04:35:28;-2.30;1.00
20400;DHT22;10359;53.596;22.520;2023-04-03T04:38:27;-2.60;1.00
20400;DHT22;10359;53.596;22.520;2023-04-03T04:41:19;-2.30;1.00
20400;DHT22;10359;53.596;22.520;2023-04-03T04:44:15;-2.10;1.00
20400;DHT22;10359;53.596;22.520;2023-04-03T04:47:06;-2.20;1.00
20400;DHT22;10359;53.596;22.520;2023-04-03T04:49:56;-2.10;1.00
20400;DHT22;10359;53.596;22.520;2023-04-03T04:52:48;-1.90;1.00
20400;DHT22;10359;53.596;22.520;2023-04-03T04:55:39;-2.30;1.00
20400;DHT22;10359;53.596;22.520;2023-04-03T04:58:32;-1.90;1.00
20400;DHT22;10359;53.596;22.520;2023-04-03T05:01:27;-1.90;1.00
20400;DHT22;10359;53.596;22.520;2023-04-03T05:04:17;-1.80;1.00
20400;DHT22;10359;53.596;22.520;2023-04-03T05:07:08;-1.60;1.00
20400;DHT22;10359;53.596;22.520;2023-04-03T05:09:59;-1.70;1.00
20400;DHT22;10359;53.596;22.520;2023-04-03T05:12:49;-1.60;1.00
20400;DHT22;10359;53.596;22.520;2023-04-03T05:15:46;-1.60;1.00
20400;DHT22;10359;53.596;22.520;2023-04-03T05:18:36;-1.80;1.00
20400;DHT22;10359;53.596;22.520;2023-04-03T05:21:27;-1.40;1.00
20400;DHT22;10359;53.596;22.520;2023-04-03T05:24:20;-1.40;1.00
20400;DHT22;10359;53.596;22.520;2023-04-03T05:27:11;-1.30;1.00
20400;DHT22;10359;53.596;22.520;2023-04-03T05:30:01;-1.30;1.00
20400;DHT22;10359;53.596;22.520;2023-04-03T05:32:52;-1.20;1.00
20400;DHT22;10359;53.596;22.520;2023-04-03T05:35:44;-1.10;1.00
20400;DHT22;10359;53.596;22.520;2023-04-03T05:38:35;-1.10;1.00
20400;DHT22;10359;53.596;22.520;2023-04-03T05:41:25;-1.00;1.00
20400;DHT22;10359;53.596;22.520;2023-04-03T05:44:15;-1.00;1.00
20400;DHT22;10359;53.596;22.520;2023-04-03T05:47:13;-0.90;1.00
20400;DHT22;10359;53.596;22.520;2023-04-03T05:50:07;-0.90;1.00
20400;DHT22;10359;53.596;22.520;2023-04-03T05:53:02;-0.80;1.00
20400;DHT22;10359;53.596;22.520;2023-04-03T05:55:58;-0.70;1.00
20400;DHT22;10359;53.596;22.520;2023-04-03T05:58:48;-0.70;99.90
20400;DHT22;10359;53.596;22.520;2023-04-03T06:01:41;-0.60;99.90
20400;DHT22;10359;53.596;22.520;2023-04-03T06:04:36;-0.50;1.00
20400;DHT22;10359;53.596;22.520;2023-04-03T06:07:32;-0.40;1.00
20400;DHT22;10359;53.596;22.520;2023-04-03T06:10:28;-0.30;99.90
20400;DHT22;10359;53.596;22.520;2023-04-03T06:13:27;-0.20;99.90
20400;DHT22;10359;53.596;22.520;2023-04-03T06:16:17;-0.10;99.90
20400;DHT22;10359;53.596;22.520;2023-04-03T06:19:08;0.00;99.90
20400;DHT22;10359;53.596;22.520;2023-04-03T06:21:57;0.00;99.90
20400;DHT22;10359;53.596;22.520;2023-04-03T06:24:49;0.10;99.90
20400;DHT22;10359;53.596;22.520;2023-04-03T06:27:47;0.20;99.90
20400;DHT22;10359;53.596;22.520;2023-04-03T06:30:37;0.30;99.90
20400;DHT22;10359;53.596;22.520;2023-04-03T06:33:29;0.30;99.90
20400;DHT22;10359;53.596;22.520;2023-04-03T06:36:20;0.30;99.90
20400;DHT22;10359;53.596;22.520;2023-04-03T06:39:17;0.40;99.90
20400;DHT22;10359;53.596;22.520;2023-04-03T06:42:22;0.60;99.90
20400;DHT22;10359;53.596;22.520;2023-04-03T06:45:12;0.70;99.90
20400;DHT22;10359;53.596;22.520;2023-04-03T06:48:04;0.70;99.90
20400;DHT22;10359;53.596;22.520;2023-04-03T06:50:57;0.70;99.90
20400;DHT22;10359;53.596;22.520;2023-04-03T06:53:53;0.70;99.90
20400;DHT22;10359;53.596;22.520;2023-04-03T06:56:45;0.90;99.90
20400;DHT22;10359;53.596;22.520;2023-04-03T06:59:40;0.90;99.90
20400;DHT22;10359;53.596;22.520;2023-04-03T07:02:31;1.00;99.90
20400;DHT22;10359;53.596;22.520;2023-04-03T07:05:21;1.20;99.90
20400;DHT22;10359;53.596;22.520;2023-04-03T07:08:12;1.20;99.90
20400;DHT22;10359;53.596;22.520;2023-04-03T07:11:08;1.30;99.90
20400;DHT22;10359;53.596;22.520;2023-04-03T07:14:02;1.40;99.90
20400;DHT22;10359;53.596;22.520;2023-04-03T07:16:54;1.50;99.90
20400;DHT22;10359;53.596;22.520;2023-04-03T07:19:49;1.60;99.90
20400;DHT22;10359;53.596;22.520;2023-04-03T07:22:42;1.60;99.90
20400;DHT22;10359;53.596;22.520;2023-04-03T07:25:33;1.80;99.90
20400;DHT22;10359;53.596;22.520;2023-04-03T07:28:34;1.80;99.90
20400;DHT22;10359;53.596;22.520;2023-04-03T07:31:31;2.00;99.90
20400;DHT22;10359;53.596;22.520;2023-04-03T07:34:31;2.20;99.90
20400;DHT22;10359;53.596;22.520;2023-04-03T07:37:23;2.30;99.90
20400;DHT22;10359;53.596;22.520;2023-04-03T07:43:23;2.50;99.90
20400;DHT22;10359;53.596;22.520;2023-04-03T07:46:26;2.50;99.90
20400;DHT22;10359;53.596;22.520;2023-04-03T07:49:18;2.40;99.90
20400;DHT22;10359;53.596;22.520;2023-04-03T07:52:17;2.50;99.90
20400;DHT22;10359;53.596;22.520;2023-04-03T07:55:10;2.80;99.90
20400;DHT22;10359;53.596;22.520;2023-04-03T07:58:00;3.00;99.90
20400;DHT22;10359;53.596;22.520;2023-04-03T08:00:50;3.00;99.90
20400;DHT22;10359;53.596;22.520;2023-04-03T08:03:41;3.30;99.90
20400;DHT22;10359;53.596;22.520;2023-04-03T08:06:35;3.50;99.90
20400;DHT22;10359;53.596;22.520;2023-04-03T08:09:35;3.70;99.90
20400;DHT22;10359;53.596;22.520;2023-04-03T08:12:29;3.70;99.90
20400;DHT22;10359;53.596;22.520;2023-04-03T08:15:27;3.40;99.90
20400;DHT22;10359;53.596;22.520;2023-04-03T08:18:22;3.60;99.90
20400;DHT22;10359;53.596;22.520;2023-04-03T08:21:24;3.60;99.90
20400;DHT22;10359;53.596;22.520;2023-04-03T08:24:22;3.80;99.90
20400;DHT22;10359;53.596;22.520;2023-04-03T08:27:23;3.80;99.90
20400;DHT22;10359;53.596;22.520;2023-04-03T08:30:19;4.00;99.90
20400;DHT22;10359;53.596;22.520;2023-04-03T08:33:13;4.30;99.90
20400;DHT22;10359;53.596;22.520;2023-04-03T08:36:14;4.60;99.90
20400;DHT22;10359;53.596;22.520;2023-04-03T08:39:08;4.80;99.90
20400;DHT22;10359;53.596;22.520;2023-04-03T08:42:00;4.70;99.90
20400;DHT22;10359;53.596;22.520;2023-04-03T08:44:59;4.80;99.90
20400;DHT22;10359;53.596;22.520;2023-04-03T08:48:03;5.00;99.90
20400;DHT22;10359;53.596;22.520;2023-04-03T08:51:08;4.90;99.90
20400;DHT22;10359;53.596;22.520;2023-04-03T08:54:26;4.80;99.90
20400;DHT22;10359;53.596;22.520;2023-04-03T08:57:30;4.70;99.90
20400;DHT22;10359;53.596;22.520;2023-04-03T09:00:26;4.30;99.90
20400;DHT22;10359;53.596;22.520;2023-04-03T09:03:30;4.20;99.90
20400;DHT22;10359;53.596;22.520;2023-04-03T09:06:29;3.90;99.90
20400;DHT22;10359;53.596;22.520;2023-04-03T09:09:35;3.70;99.90
20400;DHT22;10359;53.596;22.520;2023-04-03T09:12:41;3.50;99.90
20400;DHT22;10359;53.596;22.520;2023-04-03T09:15:40;3.60;99.90
20400;DHT22;10359;53.596;22.520;2023-04-03T09:19:15;3.90;99.90
20400;DHT22;10359;53.596;22.520;2023-04-03T09:22:07;3.90;99.90
20400;DHT22;10359;53.596;22.520;2023-04-03T09:25:20;3.70;99.90
20400;DHT22;10359;53.596;22.520;2023-04-03T09:28:26;4.10;99.90
20400;DHT22;10359;53.596;22.520;2023-04-03T09:31:43;4.80;99.90
20400;DHT22;10359;53.596;22.520;2023-04-03T09:35:04;5.40;99.90
20400;DHT22;10359;53.596;22.520;2023-04-03T09:38:36;5.00;99.90
20400;DHT22;10359;53.596;22.520;2023-04-03T09:41:38;5.00;99.90
20400;DHT22;10359;53.596;22.520;2023-04-03T09:44:38;4.70;99.90
20400;DHT22;10359;53.596;22.520;2023-04-03T09:47:44;4.70;99.90
20400;DHT22;10359;53.596;22.520;2023-04-03T09:50:56;4.70;99.90
20400;DHT22;10359;53.596;22.520;2023-04-03T09:53:50;5.50;99.90
20400;DHT22;10359;53.596;22.520;2023-04-03T09:56:54;6.10;99.90
20400;DHT22;10359;53.596;22.520;2023-04-03T09:59:56;6.00;99.90
20400;DHT22;10359;53.596;22.520;2023-04-03T10:02:58;5.70;99.90
20400;DHT22;10359;53.596;22.520;2023-04-03T10:05:54;5.40;99.90
20400;DHT22;10359;53.596;22.520;2023-04-03T10:09:02;5.60;99.90
20400;DHT22;10359;53.596;22.520;2023-04-03T10:12:03;6.40;99.90
20400;DHT22;10359;53.596;22.520;2023-04-03T10:14:59;7.20;99.90
20400;DHT22;10359;53.596;22.520;2023-04-03T10:18:05;7.10;99.90
20400;DHT22;10359;53.596;22.520;2023-04-03T10:21:15;6.70;99.90
20400;DHT22;10359;53.596;22.520;2023-04-03T10:24:20;6.30;99.90
20400;DHT22;10359;53.596;22.520;2023-04-03T10:27:40;5.80;99.90
20400;DHT22;10359;53.596;22.520;2023-04-03T10:30:46;5.50;99.90
20400;DHT22;10359;53.596;22.520;2023-04-03T10:33:59;5.50;99.90
20400;DHT22;10359;53.596;22.520;2023-04-03T10:37:03;5.50;99.90
20400;DHT22;10359;53.596;22.520;2023-04-03T10:40:02;5.80;99.90
20400;DHT22;10359;53.596;22.520;2023-04-03T10:43:08;6.00;99.90
20400;DHT22;10359;53.596;22.520;2023-04-03T10:46:27;6.20;99.90
20400;DHT22;10359;53.596;22.520;2023-04-03T10:49:54;6.20;99.90
20400;DHT22;10359;53.596;22.520;2023-04-03T10:53:05;5.90;99.90
20400;DHT22;10359;53.596;22.520;2023-04-03T10:56:13;5.60;99.90
20400;DHT22;10359;53.596;22.520;2023-04-03T10:59:21;5.60;99.90
20400;DHT22;10359;53.596;22.520;2023-04-03T11:02:23;5.90;99.90
20400;DHT22;10359;53.596;22.520;2023-04-03T11:05:39;6.20;99.90
20400;DHT22;10359;53.596;22.520;2023-04-03T11:08:57;6.40;99.90
20400;DHT22;10359;53.596;22.520;2023-04-03T11:11:53;6.90;99.90
20400;DHT22;10359;53.596;22.520;2023-04-03T11:15:20;7.10;99.90
20400;DHT22;10359;53.596;22.520;2023-04-03T11:18:20;6.60;99.90
20400;DHT22;10359;53.596;22.520;2023-04-03T11:21:20;6.10;99.90
20400;DHT22;10359;53.596;22.520;2023-04-03T11:24:32;5.70;99.90
20400;DHT22;10359;53.596;22.520;2023-04-03T11:27:24;6.00;99.90
20400;DHT22;10359;53.596;22.520;2023-04-03T11:30:25;6.00;99.90
20400;DHT22;10359;53.596;22.520;2023-04-03T11:33:33;6.00;99.90
20400;DHT22;10359;53.596;22.520;2023-04-03T11:36:44;6.20;99.90
20400;DHT22;10359;53.596;22.520;2023-04-03T11:40:04;7.40;99.90
20400;DHT22;10359;53.596;22.520;2023-04-03T11:43:07;7.20;99.90
20400;DHT22;10359;53.596;22.520;2023-04-03T11:46:14;6.40;99.90
20400;DHT22;10359;53.596;22.520;2023-04-03T11:56:43;6.90;99.90
20400;DHT22;10359;53.596;22.520;2023-04-03T11:59:38;7.60;99.90
20400;DHT22;10359;53.596;22.520;2023-04-03T12:02:44;6.90;99.90
20400;DHT22;10359;53.596;22.520;2023-04-03T12:05:42;6.00;99.90
20400;DHT22;10359;53.596;22.520;2023-04-03T12:08:47;5.60;99.90
20400;DHT22;10359;53.596;22.520;2023-04-03T12:11:51;6.50;99.90
20400;DHT22;10359;53.596;22.520;2023-04-03T12:14:54;7.00;99.90
20400;DHT22;10359;53.596;22.520;2023-04-03T12:17:52;7.50;99.90
20400;DHT22;10359;53.596;22.520;2023-04-03T12:21:06;7.50;99.90
20400;DHT22;10359;53.596;22.520;2023-04-03T12:24:04;7.40;99.90
20400;DHT22;10359;53.596;22.520;2023-04-03T12:27:15;6.80;99.90
20400;DHT22;10359;53.596;22.520;2023-04-03T12:30:29;6.70;99.90
20400;DHT22;10359;53.596;22.520;2023-04-03T12:33:42;7.50;99.90
20400;DHT22;10359;53.596;22.520;2023-04-03T12:36:47;7.80;99.90
20400;DHT22;10359;53.596;22.520;2023-04-03T12:40:07;7.80;99.90
20400;DHT22;10359;53.596;22.520;2023-04-03T12:43:33;7.80;99.90
20400;DHT22;10359;53.596;22.520;2023-04-03T12:46:36;7.50;99.90
20400;DHT22;10359;53.596;22.520;2023-04-03T12:49:39;7.10;99.90
20400;DHT22;10359;53.596;22.520;2023-04-03T12:52:47;6.90;99.90
20400;DHT22;10359;53.596;22.520;2023-04-03T12:55:49;7.80;99.90
20400;DHT22;10359;53.596;22.520;2023-04-03T12:58:45;7.90;99.90
20400;DHT22;10359;53.596;22.520;2023-04-03T13:01:36;7.30;99.90
20400;DHT22;10359;53.596;22.520;2023-04-03T13:04:39;7.10;99.90
20400;DHT22;10359;53.596;22.520;2023-04-03T13:07:31;7.30;99.90
20400;DHT22;10359;53.596;22.520;2023-04-03T13:10:25;6.80;99.90
20400;DHT22;10359;53.596;22.520;2023-04-03T13:13:15;6.80;99.90
20400;DHT22;10359;53.596;22.520;2023-04-03T13:16:12;6.90;99.90
20400;DHT22;10359;53.596;22.520;2023-04-03T13:19:17;7.50;99.90
20400;DHT22;10359;53.596;22.520;2023-04-03T13:22:23;7.40;99.90
20400;DHT22;10359;53.596;22.520;2023-04-03T13:25:50;7.40;99.90
20400;DHT22;10359;53.596;22.520;2023-04-03T13:29:02;6.70;99.90
20400;DHT22;10359;53.596;22.520;2023-04-03T13:32:20;6.80;99.90
20400;DHT22;10359;53.596;22.520;2023-04-03T13:35:37;6.90;99.90
20400;DHT22;10359;53.596;22.520;2023-04-03T13:38:30;6.90;99.90
20400;DHT22;10359;53.596;22.520;2023-04-03T13:41:25;6.60;99.90
20400;DHT22;10359;53.596;22.520;2023-04-03T13:44:35;6.50;99.90
20400;DHT22;10359;53.596;22.520;2023-04-03T13:47:44;6.10;99.90
20400;DHT22;10359;53.596;22.520;2023-04-03T13:51:00;5.80;99.90
20400;DHT22;10359;53.596;22.520;2023-04-03T13:54:00;6.20;99.90
20400;DHT22;10359;53.596;22.520;2023-04-03T13:57:00;6.50;99.90
20400;DHT22;10359;53.596;22.520;2023-04-03T14:03:42;6.40;99.90
20400;DHT22;10359;53.596;22.520;2023-04-03T14:06:33;6.20;99.90
20400;DHT22;10359;53.596;22.520;2023-04-03T14:09:40;6.10;99.90
20400;DHT22;10359;53.596;22.520;2023-04-03T14:12:37;5.90;99.90
20400;DHT22;10359;53.596;22.520;2023-04-03T14:15:31;6.00;99.90
20400;DHT22;10359;53.596;22.520;2023-04-03T14:18:28;6.00;99.90
20400;DHT22;10359;53.596;22.520;2023-04-03T14:21:24;6.20;99.90
20400;DHT22;10359;53.596;22.520;2023-04-03T14:24:20;6.40;99.90
20400;DHT22;10359;53.596;22.520;2023-04-03T14:27:20;6.80;99.90
20400;DHT22;10359;53.596;22.520;2023-04-03T14:30:21;6.60;99.90
20400;DHT22;10359;53.596;22.520;2023-04-03T14:33:13;6.40;99.90
20400;DHT22;10359;53.596;22.520;2023-04-03T14:36:17;5.70;99.90
20400;DHT22;10359;53.596;22.520;2023-04-03T14:39:23;5.40;99.90
20400;DHT22;10359;53.596;22.520;2023-04-03T14:42:27;5.30;99.90
20400;DHT22;10359;53.596;22.520;2023-04-03T14:45:29;5.60;99.90
20400;DHT22;10359;53.596;22.520;2023-04-03T14:48:24;5.60;99.90
20400;DHT22;10359;53.596;22.520;2023-04-03T14:51:19;5.40;99.90
20400;DHT22;10359;53.596;22.520;2023-04-03T14:54:21;5.10;99.90
20400;DHT22;10359;53.596;22.520;2023-04-03T14:57:18;5.20;99.90
20400;DHT22;10359;53.596;22.520;2023-04-03T15:00:20;5.20;99.90
20400;DHT22;10359;53.596;22.520;2023-04-03T15:03:16;5.20;99.90
20400;DHT22;10359;53.596;22.520;2023-04-03T15:06:09;5.30;99.90
20400;DHT22;10359;53.596;22.520;2023-04-03T15:09:00;5.40;99.90
20400;DHT22;10359;53.596;22.520;2023-04-03T15:12:02;5.60;99.90
20400;DHT22;10359;53.596;22.520;2023-04-03T15:15:08;5.50;99.90
20400;DHT22;10359;53.596;22.520;2023-04-03T15:18:02;5.50;99.90
20400;DHT22;10359;53.596;22.520;2023-04-03T15:20:53;5.50;99.90
20400;DHT22;10359;53.596;22.520;2023-04-03T15:23:45;5.30;99.90
20400;DHT22;10359;53.596;22.520;2023-04-03T15:26:35;5.20;99.90
20400;DHT22;10359;53.596;22.520;2023-04-03T15:29:42;5.10;99.90
20400;DHT22;10359;53.596;22.520;2023-04-03T15:32:43;5.00;99.90
20400;DHT22;10359;53.596;22.520;2023-04-03T15:35:37;5.10;99.90
20400;DHT22;10359;53.596;22.520;2023-04-03T15:38:34;5.20;99.90
20400;DHT22;10359;53.596;22.520;2023-04-03T15:41:35;5.30;99.90
20400;DHT22;10359;53.596;22.520;2023-04-03T15:44:59;5.20;99.90
20400;DHT22;10359;53.596;22.520;2023-04-03T15:47:51;5.20;99.90
20400;DHT22;10359;53.596;22.520;2023-04-03T15:50:42;5.10;99.90
20400;DHT22;10359;53.596;22.520;2023-04-03T15:53:35;5.10;99.90
20400;DHT22;10359;53.596;22.520;2023-04-03T15:56:49;4.90;99.90
20400;DHT22;10359;53.596;22.520;2023-04-03T15:59:42;4.90;99.90
20400;DHT22;10359;53.596;22.520;2023-04-03T16:02:38;4.60;99.90
20400;DHT22;10359;53.596;22.520;2023-04-03T16:05:29;4.50;99.90
20400;DHT22;10359;53.596;22.520;2023-04-03T16:08:22;4.40;99.90
20400;DHT22;10359;53.596;22.520;2023-04-03T16:11:13;4.40;99.90
20400;DHT22;10359;53.596;22.520;2023-04-03T16:14:05;4.30;99.90
20400;DHT22;10359;53.596;22.520;2023-04-03T16:17:02;4.20;99.90
20400;DHT22;10359;53.596;22.520;2023-04-03T16:19:56;4.10;99.90
20400;DHT22;10359;53.596;22.520;2023-04-03T16:22:51;4.00;99.90
20400;DHT22;10359;53.596;22.520;2023-04-03T16:25:43;3.80;99.90
20400;DHT22;10359;53.596;22.520;2023-04-03T16:28:36;3.70;99.90
20400;DHT22;10359;53.596;22.520;2023-04-03T16:31:29;3.60;99.90
20400;DHT22;10359;53.596;22.520;2023-04-03T16:34:25;3.40;99.90
20400;DHT22;10359;53.596;22.520;2023-04-03T16:37:24;3.40;99.90
20400;DHT22;10359;53.596;22.520;2023-04-03T16:40:19;3.40;99.90
20400;DHT22;10359;53.596;22.520;2023-04-03T16:43:13;3.50;99.90
20400;DHT22;10359;53.596;22.520;2023-04-03T16:46:07;3.50;99.90
20400;DHT22;10359;53.596;22.520;2023-04-03T16:48:59;3.40;99.90
20400;DHT22;10359;53.596;22.520;2023-04-03T16:52:02;3.20;99.90
20400;DHT22;10359;53.596;22.520;2023-04-03T16:54:59;3.00;99.90
20400;DHT22;10359;53.596;22.520;2023-04-03T16:57:54;2.80;99.90
20400;DHT22;10359;53.596;22.520;2023-04-03T17:00:48;2.70;99.90
20400;DHT22;10359;53.596;22.520;2023-04-03T17:03:42;2.60;99.90
20400;DHT22;10359;53.596;22.520;2023-04-03T17:06:41;2.50;99.90
20400;DHT22;10359;53.596;22.520;2023-04-03T17:12:56;2.20;99.90
20400;DHT22;10359;53.596;22.520;2023-04-03T17:15:49;2.30;99.90
20400;DHT22;10359;53.596;22.520;2023-04-03T17:18:42;2.40;99.90
20400;DHT22;10359;53.596;22.520;2023-04-03T17:21:40;2.50;99.90
20400;DHT22;10359;53.596;22.520;2023-04-03T17:24:33;2.60;99.90
20400;DHT22;10359;53.596;22.520;2023-04-03T17:27:30;2.70;99.90
20400;DHT22;10359;53.596;22.520;2023-04-03T17:30:25;2.60;99.90
20400;DHT22;10359;53.596;22.520;2023-04-03T17:33:19;2.60;99.90
20400;DHT22;10359;53.596;22.520;2023-04-03T17:36:13;2.40;99.90
20400;DHT22;10359;53.596;22.520;2023-04-03T17:39:08;2.20;99.90
20400;DHT22;10359;53.596;22.520;2023-04-03T17:42:04;2.00;99.90
20400;DHT22;10359;53.596;22.520;2023-04-03T17:44:58;1.70;99.90
20400;DHT22;10359;53.596;22.520;2023-04-03T17:47:52;1.50;99.90
20400;DHT22;10359;53.596;22.520;2023-04-03T17:50:44;1.40;99.90
20400;DHT22;10359;53.596;22.520;2023-04-03T17:53:39;1.20;99.90
20400;DHT22;10359;53.596;22.520;2023-04-03T17:56:32;1.00;99.90
20400;DHT22;10359;53.596;22.520;2023-04-03T17:59:24;0.90;99.90
20400;DHT22;10359;53.596;22.520;2023-04-03T18:02:23;0.70;99.90
20400;DHT22;10359;53.596;22.520;2023-04-03T18:05:32;0.60;99.90
20400;DHT22;10359;53.596;22.520;2023-04-03T18:08:32;0.60;99.90
20400;DHT22;10359;53.596;22.520;2023-04-03T18:11:31;0.50;99.90
20400;DHT22;10359;53.596;22.520;2023-04-03T18:14:25;0.50;99.90
20400;DHT22;10359;53.596;22.520;2023-04-03T18:17:20;0.40;99.90
20400;DHT22;10359;53.596;22.520;2023-04-03T18:20:12;0.30;99.90
20400;DHT22;10359;53.596;22.520;2023-04-03T18:23:08;0.20;99.90
20400;DHT22;10359;53.596;22.520;2023-04-03T18:26:03;0.20;99.90
20400;DHT22;10359;53.596;22.520;2023-04-03T18:28:59;0.10;99.90
20400;DHT22;10359;53.596;22.520;2023-04-03T18:31:54;-0.10;99.90
20400;DHT22;10359;53.596;22.520;2023-04-03T18:34:52;-0.20;99.90
20400;DHT22;10359;53.596;22.520;2023-04-03T18:37:44;-0.30;99.90
20400;DHT22;10359;53.596;22.520;2023-04-03T18:40:41;-0.50;99.90
20400;DHT22;10359;53.596;22.520;2023-04-03T18:43:38;-0.60;99.90
20400;DHT22;10359;53.596;22.520;2023-04-03T18:46:33;-0.60;99.90
20400;DHT22;10359;53.596;22.520;2023-04-03T18:49:33;-0.60;99.90
20400;DHT22;10359;53.596;22.520;2023-04-03T18:52:28;-0.50;99.90
20400;DHT22;10359;53.596;22.520;2023-04-03T18:55:25;-0.60;99.90
20400;DHT22;10359;53.596;22.520;2023-04-03T18:58:26;-0.60;99.90